Pelham, NH

2:34 PM EDT on October 23, 2014 (GMT -0400)
Boire | Change Station
CLOSE
Current Station
Airport
Location: Nashua,
Elevation: 200 ft
Nearby Weather Stations

Elev 200 ft 42.78 °N, 71.51 °W | Updated 43 minutes ago

Overcast
Overcast
53 °F
Feels Like 53 °F
N
14
Wind Variable Wind from North
Gusts 18 mph

Today
High -- | Low -- °F
--% Chance of Precip.
Yesterday
High -- | Low -- °F
Precip. -- in
7:08 AM 5:50 PM
Waning Crescent, 0% visible
Pressure 30.41 in
Visibility 10.0 miles
Clouds Overcast 1400 ft
Dew Point 51 °F
Humidity 93%
Rainfall 0.00 in
Snow Depth Not available.
UV 1 out of 12
Pollen .30 out of 12
Air Quality Not available.
Flu Activity Local Activity
METAR KASH 231751Z 36012G16KT 10SM -RA OVC014 12/11 A2968 RMK AO2 56015 60000 T01160105 10116 20094 P0000 SLP297 $

More Conditions Fewer Conditions

Pressure 30.41 in
Visibility 10.0 miles
Clouds Overcast 1400 ft
Dew Point 51 °F
Humidity 93%
Rainfall 0.00 in
Snow Depth Not available.
UV 1 out of 12
Pollen .30 out of 12
Air Quality Not available.
Flu Activity Local Activity
METAR KASH 231751Z 36012G16KT 10SM -RA OVC014 12/11 A2968 RMK AO2 56015 60000 T01160105 10116 20094 P0000 SLP297 $

More Conditions Fewer Conditions

10-Day Weather Forecast

Almanac

Astronomy

Oct. 23, 2014 Rise Set
Actual Time 7:08 AM EDT 5:50 PM EDT
Civil Twilight 6:39 AM EDT 6:19 PM EDT
Nautical Twilight 6:06 AM EDT 6:52 PM EDT
Astronomical Twilight 5:33 AM EDT 7:24 PM EDT
Moon 6:44 AM EDT 5:50 PM EDT
Length of Visible Light 11h 40m
Length of Day
10h 42m
Tomorrow will be 2m 42s shorter.
Waning Crescent, 0% of the Moon is Illuminated
Today
Waning Crescent
Oct 23
New
Oct 30
First Quarter
Nov 6
Full
Nov 14
Last Quarter

Today's Extremes

State Highs State Lows

Community

WunderPhotos

Upload Photos

1,764,338 photos uploaded!

WunderBlogs® & News

Nearby

Air Quality

  Air Quality AQ Index Pollutant
Thursday Good
PM2.5
Thursday Good
OZONE
Friday Good
PM2.5
Friday Good
OZONE

Snow Depth

Station Depth Elevation
No new snow has been reported.

Earthquake Activity

City Distance Mag. Time & Date
No recent earthquake activity has been reported nearby.
Minimum magnitude displayed is 2.5.

Coastal Water Temperatures

Place Temperature
Boston, MA 55.9 °F
Fall River, MA 62.1 °F

Nearby Weather Stations